Time;durP1;ratioP1;P1;durP2;ratioP2;P2;SDS_P1;SDS_P2;PMS_P1;PMS_P2;Temp;Humidity;BMP_temperature;BMP_pressure;BME280_temperature;BME280_humidity;BME280_pressure;Samples;Min_cycle;Max_cycle;Signal;HPM_P1;HPM_P2
2021/04/21 00:00:00;559574.00;1.87;964.47;84387.00;0.28;146.61;;;;;15.30;1.00;;;;;;2259557;61;971;-90
2021/04/21 00:02:28;682973.00;2.28;1177.72;83376.00;0.28;144.87;;;;;15.40;1.00;;;;;;2259589;61;1425;-89
2021/04/21 00:04:57;475571.00;1.59;819.78;68148.00;0.23;118.56;;;;;15.60;1.00;;;;;;2259644;61;1932;-89
2021/04/21 00:07:25;488019.00;1.63;841.20;81585.00;0.27;141.78;;;;;15.50;1.00;;;;;;2251584;61;960;-90
2021/04/21 00:09:54;866487.00;2.89;1497.33;108888.00;0.36;188.91;;;;;15.50;1.00;;;;;;2251658;61;982;-89
2021/04/21 00:12:22;574743.00;1.92;990.63;84805.00;0.28;147.34;;;;;15.20;1.00;;;;;;2243577;61;1430;-90
2021/04/21 00:14:52;786246.00;2.62;1357.15;77984.00;0.26;135.55;;;;;14.70;1.00;;;;;;2243443;61;1118;-89
2021/04/21 00:24:46;1181341.00;3.94;2056.52;70944.00;0.24;123.39;;;;;14.20;1.00;;;;;;2265699;61;1899;-91
2021/04/21 00:32:16;830338.00;2.77;1434.09;83971.00;0.28;145.90;;;;;14.50;1.00;;;;;;2265352;61;1352;-91
2021/04/21 00:42:21;951247.00;3.17;1646.31;87122.00;0.29;151.34;;;;;14.70;1.00;;;;;;2266068;61;1423;-90
2021/04/21 00:47:24;1524281.00;5.08;2688.89;96480.00;0.32;167.50;;;;;14.60;1.00;;;;;;2267277;61;1313;-90
2021/04/21 00:52:31;960799.00;3.20;1663.16;106064.00;0.35;184.04;;;;;13.50;1.00;;;;;;2267123;61;1362;-91
2021/04/21 00:57:38;1313907.00;4.38;2297.58;81399.00;0.27;141.45;;;;;14.00;1.00;;;;;;2267139;61;1311;-91
2021/04/21 01:02:43;1231171.00;4.10;2146.68;126002.00;0.42;218.43;;;;;12.30;1.00;;;;;;2266764;61;1402;-90
2021/04/21 01:10:08;1029007.00;3.43;1783.91;55608.00;0.19;96.88;;;;;12.00;1.00;;;;;;2267081;61;1006;-88
2021/04/21 01:20:15;806434.00;2.69;1392.35;84043.00;0.28;146.02;;;;;12.90;1.00;;;;;;2266420;61;1393;-90
2021/04/21 01:42:36;615402.00;2.05;1060.82;0.00;0.00;0.62;;;;;12.60;1.00;;;;;;2266269;61;1391;-89
2021/04/21 01:50:08;741593.00;2.47;1279.44;0.00;0.00;0.62;;;;;13.50;1.00;;;;;;2265730;61;1246;-89
2021/04/21 01:57:41;595255.00;1.98;1026.03;0.00;0.00;0.62;;;;;13.60;1.00;;;;;;2266528;61;1257;-88
2021/04/21 02:00:12;338354.00;1.13;583.84;59693.00;0.20;103.95;;;;;13.60;1.00;;;;;;2263801;61;1049;-90
2021/04/21 02:10:19;708178.00;2.36;1221.42;0.00;0.00;0.62;;;;;12.10;1.00;;;;;;2265967;61;1390;-90
2021/04/21 02:15:21;947072.00;3.16;1638.95;0.00;0.00;0.62;;;;;12.40;1.00;;;;;;2265803;61;1395;-90
2021/04/21 02:59:58;848605.00;2.83;1466.03;0.00;0.00;0.62;;;;;13.10;1.00;;;;;;2422898;40;2137;-88
2021/04/21 05:26:43;672612.00;2.24;1159.78;0.00;0.00;0.62;;;;;13.00;1.00;;;;;;2266271;61;1938;-90
2021/04/21 05:32:11;682493.00;2.27;1176.89;0.00;0.00;0.62;;;;;14.30;1.00;;;;;;2265912;61;1427;-91
2021/04/21 05:45:13;578486.00;1.93;997.09;0.00;0.00;0.62;;;;;17.10;1.00;;;;;;2266767;61;1296;-89
2021/04/21 05:53:24;842267.00;2.81;1454.94;0.00;0.00;0.62;;;;;18.50;1.00;;;;;;2266341;61;1415;-90
2021/04/21 05:56:32;494365.00;1.65;852.12;0.00;0.00;0.62;;;;;18.50;1.00;;;;;;2264472;61;1021;-88
2021/04/21 05:59:29;63468.00;0.21;110.47;0.00;0.00;0.62;;;;;18.50;1.00;;;;;;2264549;61;915;-88
2021/04/21 06:01:57;91187.00;0.30;158.36;0.00;0.00;0.62;;;;;18.50;1.00;;;;;;2255956;61;1403;-87
2021/04/21 06:04:24;25243.00;0.08;44.35;0.00;0.00;0.62;;;;;18.80;1.00;;;;;;2247950;61;1012;-88
2021/04/21 06:09:26;628403.00;2.09;1083.29;23025.00;0.08;40.51;;;;;19.30;1.00;;;;;;2266643;61;1300;-90
2021/04/21 06:14:22;405525.00;1.35;699.30;0.00;0.00;0.62;;;;;20.20;1.00;;;;;;2270423;61;1351;-88
2021/04/21 06:21:56;864013.00;2.88;1493.00;24422.00;0.08;42.93;;;;;19.90;1.00;;;;;;2262163;61;1380;-89
2021/04/21 06:27:06;442654.00;1.48;763.15;0.00;0.00;0.62;;;;;19.90;1.00;;;;;;2266059;61;1973;-88
2021/04/21 07:24:31;269090.00;0.90;464.78;27417.00;0.09;48.11;;;;;23.60;1.00;;;;;;2274375;61;1219;-90
2021/04/21 07:26:59;0.00;0.00;0.62;0.00;0.00;0.62;;;;;23.70;1.00;;;;;;2272281;61;2007;-90
2021/04/21 07:29:27;26694.00;0.09;46.86;0.00;0.00;0.62;;;;;23.90;1.00;;;;;;2265287;61;1013;-89
2021/04/21 07:31:54;133010.00;0.44;230.52;0.00;0.00;0.62;;;;;24.00;1.00;;;;;;2261899;61;1265;-86
2021/04/21 07:34:29;176843.00;0.59;306.05;2186.00;0.01;4.41;;;;;24.10;1.00;;;;;;2265214;61;968;-88
2021/04/21 07:36:55;8696.00;0.03;15.69;0.00;0.00;0.62;;;;;23.80;1.00;;;;;;2268550;61;986;-90
2021/04/21 07:39:31;128535.00;0.43;222.80;0.00;0.00;0.62;;;;;24.20;1.00;;;;;;2263775;61;954;-90
2021/04/21 07:46:54;71809.00;0.24;124.89;0.00;0.00;0.62;;;;;24.50;1.00;;;;;;2266480;61;1905;-91
2021/04/21 07:49:30;53570.00;0.18;93.36;0.00;0.00;0.62;;;;;24.50;1.00;;;;;;2264209;61;817;-88
2021/04/21 07:51:57;73966.00;0.25;128.61;0.00;0.00;0.62;;;;;24.40;1.00;;;;;;2264174;61;1424;-91
2021/04/21 08:01:50;171233.00;0.57;296.39;0.00;0.00;0.62;;;;;24.30;1.00;;;;;;2266121;61;1421;-89
2021/04/21 08:09:17;140470.00;0.47;243.38;0.00;0.00;0.62;;;;;24.50;1.00;;;;;;2265700;61;1396;-90
2021/04/21 08:11:44;81558.00;0.27;141.73;0.00;0.00;0.62;;;;;24.10;1.00;;;;;;2263764;61;1331;-91
2021/04/21 08:14:11;247778.00;0.83;428.13;17962.00;0.06;31.74;;;;;24.30;1.00;;;;;;2260429;61;993;-90
2021/04/21 08:16:38;18391.00;0.06;32.48;0.00;0.00;0.62;;;;;24.40;1.00;;;;;;2264167;61;878;-89
2021/04/21 08:19:19;61365.00;0.20;106.84;0.00;0.00;0.62;;;;;24.50;1.00;;;;;;2259613;61;954;-88
2021/04/21 08:21:47;86224.00;0.29;149.79;0.00;0.00;0.62;;;;;24.40;1.00;;;;;;2259652;61;1428;-90
2021/04/21 08:24:16;0.00;0.00;0.62;0.00;0.00;0.62;;;;;24.60;1.00;;;;;;2251617;61;1048;-89
2021/04/21 08:26:44;26671.00;0.09;46.82;0.00;0.00;0.62;;;;;24.30;1.00;;;;;;2251667;61;1978;-89
2021/04/21 08:29:13;28613.00;0.10;50.18;0.00;0.00;0.62;;;;;23.70;1.00;;;;;;2251734;61;993;-89
2021/04/21 08:31:43;224969.00;0.75;388.89;0.00;0.00;0.62;;;;;23.60;1.00;;;;;;2248239;61;1364;-89
2021/04/21 08:34:09;0.00;0.00;0.62;0.00;0.00;0.62;;;;;23.90;1.00;;;;;;2251491;61;990;-88
2021/04/21 08:39:06;46763.00;0.16;81.59;0.00;0.00;0.62;;;;;24.20;1.00;;;;;;2265948;61;1428;-89
2021/04/21 08:41:37;61871.00;0.21;107.71;0.00;0.00;0.62;;;;;23.70;1.00;;;;;;2264102;61;1363;-88
2021/04/21 08:44:05;47322.00;0.16;82.55;0.00;0.00;0.62;;;;;24.30;1.00;;;;;;2264124;61;936;-89
2021/04/21 08:46:31;151123.00;0.50;261.74;0.00;0.00;0.62;;;;;24.50;1.00;;;;;;2259499;61;1916;-88
2021/04/21 08:48:58;146931.00;0.49;254.52;0.00;0.00;0.62;;;;;24.50;1.00;;;;;;2255502;61;946;-90
2021/04/21 08:51:27;19938.00;0.07;35.16;0.00;0.00;0.62;;;;;24.30;1.00;;;;;;2255607;61;1309;-91
2021/04/21 08:56:23;326885.00;1.09;564.13;130930.00;0.44;226.93;;;;;23.70;1.00;;;;;;2265747;61;1420;-89
2021/04/21 08:58:50;5857.00;0.02;10.77;0.00;0.00;0.62;;;;;23.80;1.00;;;;;;2263558;61;964;-90
2021/04/21 09:01:18;230314.00;0.77;398.09;0.00;0.00;0.62;;;;;24.20;1.00;;;;;;2251737;61;1283;-91
2021/04/21 09:03:48;180512.00;0.60;312.37;60532.00;0.20;105.40;;;;;23.40;1.00;;;;;;2252343;61;1074;-89
2021/04/21 09:06:17;0.00;0.00;0.62;0.00;0.00;0.62;;;;;22.60;1.00;;;;;;2252309;61;1920;-90
2021/04/21 09:08:45;0.00;0.00;0.62;0.00;0.00;0.62;;;;;22.50;1.00;;;;;;2244294;61;1007;-89
2021/04/21 09:11:12;33014.00;0.11;57.80;0.00;0.00;0.62;;;;;21.90;1.00;;;;;;2241021;61;1450;-89
2021/04/21 09:13:39;149264.00;0.50;258.54;0.00;0.00;0.62;;;;;21.70;1.00;;;;;;2241026;61;1155;-89
2021/04/21 09:16:08;11909.00;0.04;21.26;0.00;0.00;0.62;;;;;21.50;1.00;;;;;;2241676;61;1000;-89
2021/04/21 09:18:35;43073.00;0.14;75.20;0.00;0.00;0.62;;;;;21.50;1.00;;;;;;2247155;61;959;-90
2021/04/21 09:21:15;0.00;0.00;0.62;0.00;0.00;0.62;;;;;21.70;1.00;;;;;;2252230;61;1458;-90
2021/04/21 09:23:43;0.00;0.00;0.62;0.00;0.00;0.62;;;;;21.70;1.00;;;;;;2248892;61;1018;-87
2021/04/21 09:26:14;70356.00;0.23;122.38;0.00;0.00;0.62;;;;;21.50;1.00;;;;;;2254089;61;1931;-88
2021/04/21 09:28:43;159848.00;0.53;276.78;0.00;0.00;0.62;;;;;21.30;1.00;;;;;;2260137;61;977;-88
2021/04/21 09:31:15;77714.00;0.26;135.09;0.00;0.00;0.62;;;;;21.30;1.00;;;;;;2256848;61;1476;-89
2021/04/21 09:33:42;50207.00;0.17;87.54;0.00;0.00;0.62;;;;;20.70;1.00;;;;;;2260228;61;1020;-89
2021/04/21 09:36:09;61049.00;0.20;106.29;0.00;0.00;0.62;;;;;20.70;1.00;;;;;;2253632;61;932;-88
2021/04/21 09:38:36;164624.00;0.55;285.01;0.00;0.00;0.62;;;;;20.60;1.00;;;;;;2261549;61;1025;-87
2021/04/21 09:41:06;179556.00;0.60;310.72;41319.00;0.14;72.17;;;;;20.40;1.00;;;;;;2264619;61;1348;-87
2021/04/21 09:43:34;11192.00;0.04;20.01;0.00;0.00;0.62;;;;;20.80;1.00;;;;;;2264572;61;1025;-89
2021/04/21 09:46:03;43185.00;0.14;75.40;0.00;0.00;0.62;;;;;20.90;1.00;;;;;;2264112;61;1934;-87
2021/04/21 09:48:33;81422.00;0.27;141.49;0.00;0.00;0.62;;;;;20.40;1.00;;;;;;2260618;61;929;-87
2021/04/21 09:51:03;52192.00;0.17;90.98;0.00;0.00;0.62;;;;;20.40;1.00;;;;;;2263992;61;1413;-89
2021/04/21 09:53:33;0.00;0.00;0.62;0.00;0.00;0.62;;;;;20.30;1.00;;;;;;2257479;61;1039;-89
2021/04/21 09:56:02;93709.00;0.31;162.71;0.00;0.00;0.62;;;;;19.80;1.00;;;;;;2255981;61;955;-87
2021/04/21 09:58:30;126990.00;0.42;220.14;0.00;0.00;0.62;;;;;19.70;1.00;;;;;;2256159;61;1029;-89
2021/04/21 10:00:57;156762.00;0.52;271.46;0.00;0.00;0.62;;;;;19.80;1.00;;;;;;2252659;61;1414;-87
2021/04/21 10:03:24;206305.00;0.69;356.78;0.00;0.00;0.62;;;;;20.20;1.00;;;;;;2256119;61;1009;-88
2021/04/21 10:05:51;114905.00;0.38;199.29;0.00;0.00;0.62;;;;;19.90;1.00;;;;;;2251920;61;2006;-87
2021/04/21 10:08:19;211604.00;0.71;365.90;0.00;0.00;0.62;;;;;20.00;1.00;;;;;;2246232;61;962;-89
2021/04/21 10:10:47;126005.00;0.42;218.44;0.00;0.00;0.62;;;;;20.30;1.00;;;;;;2255976;61;1412;-88
2021/04/21 10:13:18;136645.00;0.46;236.79;40748.00;0.14;71.18;;;;;20.80;1.00;;;;;;2257205;61;970;-87
2021/04/21 10:15:45;195601.00;0.65;338.35;0.00;0.00;0.62;;;;;20.60;1.00;;;;;;2259967;61;963;-88
2021/04/21 10:18:14;60051.00;0.20;104.56;0.00;0.00;0.62;;;;;20.10;1.00;;;;;;2260078;61;944;-89
2021/04/21 10:20:43;168466.00;0.56;291.62;0.00;0.00;0.62;;;;;19.70;1.00;;;;;;2251921;61;1437;-87
2021/04/21 10:23:12;278052.00;0.93;480.19;0.00;0.00;0.62;;;;;20.10;1.00;;;;;;2249339;61;956;-87
2021/04/21 10:25:40;178383.00;0.59;308.70;0.00;0.00;0.62;;;;;20.30;1.00;;;;;;2256034;61;1977;-88
2021/04/21 10:28:07;171125.00;0.57;296.20;0.00;0.00;0.62;;;;;20.50;1.00;;;;;;2256071;61;1017;-89
2021/04/21 10:30:33;266282.00;0.89;459.95;0.00;0.00;0.62;;;;;20.50;1.00;;;;;;2255895;61;1425;-88
2021/04/21 10:33:01;324888.00;1.08;560.70;0.00;0.00;0.62;;;;;20.80;1.00;;;;;;2252597;61;996;-88
2021/04/21 10:35:28;187751.00;0.63;324.84;0.00;0.00;0.62;;;;;21.00;1.00;;;;;;2243976;61;1043;-90
2021/04/21 10:37:57;269487.00;0.90;465.46;0.00;0.00;0.62;;;;;20.10;1.00;;;;;;2241378;61;978;-89
2021/04/21 10:40:27;314459.00;1.05;542.77;0.00;0.00;0.62;;;;;19.50;1.00;;;;;;2248035;61;1307;-87
2021/04/21 10:42:55;395810.00;1.32;682.60;0.00;0.00;0.62;;;;;19.80;1.00;;;;;;2248008;61;1032;-88
2021/04/21 10:45:25;189598.00;0.63;328.02;0.00;0.00;0.62;;;;;19.90;1.00;;;;;;2247988;61;1916;-89
2021/04/21 10:47:54;33745.00;0.11;59.06;0.00;0.00;0.62;;;;;20.30;1.00;;;;;;2247958;61;998;-87
2021/04/21 10:50:38;192525.00;0.64;333.06;0.00;0.00;0.62;;;;;20.40;1.00;;;;;;2248607;61;1436;-90
2021/04/21 10:53:06;124724.00;0.42;216.23;0.00;0.00;0.62;;;;;20.20;1.00;;;;;;2255773;61;980;-90
2021/04/21 10:55:41;105453.00;0.35;182.98;0.00;0.00;0.62;;;;;20.00;1.00;;;;;;2257262;61;971;-88
2021/04/21 10:58:12;181911.00;0.61;314.78;79308.00;0.26;137.84;;;;;19.70;1.00;;;;;;2263836;61;959;-88
2021/04/21 11:00:40;346215.00;1.15;597.36;102894.00;0.34;178.57;;;;;19.80;1.00;;;;;;2257271;61;1491;-88
2021/04/21 11:03:09;254763.00;0.85;440.14;77865.00;0.26;135.35;;;;;20.20;1.00;;;;;;2255830;61;999;-88
2021/04/21 11:05:59;220154.00;0.73;380.61;83621.00;0.28;145.29;;;;;20.40;1.00;;;;;;2252482;61;2003;-89
2021/04/21 11:08:28;259021.00;0.86;447.46;80087.00;0.27;139.19;;;;;20.80;1.00;;;;;;2249930;61;910;-88
2021/04/21 11:10:58;265308.00;0.88;458.28;81391.00;0.27;141.44;;;;;20.60;1.00;;;;;;2248466;61;1420;-88
2021/04/21 11:13:40;352948.00;1.18;608.93;151310.00;0.50;262.07;;;;;20.30;1.00;;;;;;2251862;61;1001;-89
2021/04/21 11:16:33;251852.00;0.84;435.14;83779.00;0.28;145.56;;;;;19.60;1.00;;;;;;2251864;61;1189;-89
2021/04/21 11:19:30;342521.00;1.14;591.01;78822.00;0.26;137.00;;;;;19.50;1.00;;;;;;2248481;61;965;-88
2021/04/21 11:22:17;85130.00;0.28;147.90;0.00;0.00;0.62;;;;;20.30;1.00;;;;;;2258688;61;1325;-88
2021/04/21 11:25:04;48397.00;0.16;84.41;0.00;0.00;0.62;;;;;20.50;1.00;;;;;;2256275;61;1098;-86
2021/04/21 11:27:44;0.00;0.00;0.62;0.00;0.00;0.62;;;;;20.60;1.00;;;;;;2262994;61;948;-87
2021/04/21 11:30:49;95270.00;0.32;165.41;0.00;0.00;0.62;;;;;21.20;1.00;;;;;;2263841;61;1018;-89
2021/04/21 11:33:55;34664.00;0.12;60.66;0.00;0.00;0.62;;;;;21.90;1.00;;;;;;2263830;61;1076;-88
2021/04/21 11:36:42;0.00;0.00;0.62;0.00;0.00;0.62;;;;;21.80;1.00;;;;;;2263821;61;1055;-88
2021/04/21 11:39:09;349597.00;1.17;603.17;25841.00;0.09;45.38;;;;;21.10;1.00;;;;;;2253942;61;969;-87
2021/04/21 11:41:47;19527.00;0.07;34.45;0.00;0.00;0.62;;;;;20.60;1.00;;;;;;2255746;61;1314;-88
2021/04/21 11:44:50;35406.00;0.12;61.94;0.00;0.00;0.62;;;;;20.70;1.00;;;;;;2252322;61;1008;-88
2021/04/21 11:47:29;8246.00;0.03;14.91;0.00;0.00;0.62;;;;;21.30;1.00;;;;;;2253047;61;2003;-86
2021/04/21 11:50:07;21862.00;0.07;38.49;0.00;0.00;0.62;;;;;21.20;1.00;;;;;;2256428;61;960;-88
2021/04/21 11:52:44;28328.00;0.09;49.69;0.00;0.00;0.62;;;;;20.90;1.00;;;;;;2259760;61;1368;-89
2021/04/21 11:55:18;64173.00;0.21;111.69;0.00;0.00;0.62;;;;;20.90;1.00;;;;;;2259693;61;1112;-87
2021/04/21 11:57:50;76838.00;0.26;133.58;0.00;0.00;0.62;;;;;20.60;1.00;;;;;;2259752;61;933;-87
2021/04/21 12:00:19;81695.00;0.27;141.97;0.00;0.00;0.62;;;;;21.00;1.00;;;;;;2263227;61;1029;-88
2021/04/21 12:02:46;64659.00;0.22;112.53;0.00;0.00;0.62;;;;;21.20;1.00;;;;;;2263778;61;1006;-88
2021/04/21 12:05:14;303691.00;1.01;524.26;58219.00;0.19;101.40;;;;;21.40;1.00;;;;;;2257043;61;1916;-88
2021/04/21 12:07:46;142232.00;0.47;246.42;0.00;0.00;0.62;;;;;21.40;1.00;;;;;;2263730;61;1016;-88
2021/04/21 12:10:12;162909.00;0.54;282.05;0.00;0.00;0.62;;;;;21.70;1.00;;;;;;2257122;61;988;-88
2021/04/21 12:12:39;156709.00;0.52;271.37;0.00;0.00;0.62;;;;;22.10;1.00;;;;;;2263700;61;1339;-89
2021/04/21 12:15:09;276321.00;0.92;477.21;34432.00;0.11;60.25;;;;;21.90;1.00;;;;;;2257129;61;992;-86
2021/04/21 12:17:47;157372.00;0.52;272.51;0.00;0.00;0.62;;;;;22.00;1.00;;;;;;2263547;61;1041;-85
2021/04/21 12:20:21;201881.00;0.67;349.16;25614.00;0.09;44.99;;;;;21.80;1.00;;;;;;2254934;61;961;-85
2021/04/21 12:22:48;66513.00;0.22;115.73;0.00;0.00;0.62;;;;;21.80;1.00;;;;;;2251008;61;1157;-86
2021/04/21 12:25:15;142393.00;0.47;246.70;0.00;0.00;0.62;;;;;22.20;1.00;;;;;;2244540;61;2007;-85
2021/04/21 12:27:42;51112.00;0.17;89.11;0.00;0.00;0.62;;;;;21.80;1.00;;;;;;2251174;61;1106;-85
2021/04/21 12:30:11;96713.00;0.32;167.90;0.00;0.00;0.62;;;;;21.60;1.00;;;;;;2250894;61;1174;-87
2021/04/21 12:32:38;282510.00;0.94;487.85;0.00;0.00;0.62;;;;;21.80;1.00;;;;;;2245040;61;1339;-86
2021/04/21 12:35:07;180454.00;0.60;312.27;0.00;0.00;0.62;;;;;21.00;1.00;;;;;;2248570;61;968;-87
2021/04/21 12:37:34;20983.00;0.07;36.97;0.00;0.00;0.62;;;;;21.00;1.00;;;;;;2249867;61;971;-86
2021/04/21 12:40:02;138866.00;0.46;240.62;0.00;0.00;0.62;;;;;21.40;1.00;;;;;;2256897;61;977;-88
2021/04/21 12:42:29;147011.00;0.49;254.66;0.00;0.00;0.62;;;;;22.00;1.00;;;;;;2260185;61;1892;-87
2021/04/21 12:44:56;202340.00;0.67;349.95;86327.00;0.29;149.97;;;;;22.20;1.00;;;;;;2260076;61;1126;-89
2021/04/21 12:47:31;187280.00;0.62;324.03;84279.00;0.28;146.43;;;;;22.30;1.00;;;;;;2253563;61;2015;-86
2021/04/21 12:50:07;377358.00;1.26;650.88;78548.00;0.26;136.53;;;;;22.00;1.00;;;;;;2253392;61;1036;-84
2021/04/21 12:52:34;294327.00;0.98;508.17;80713.00;0.27;140.27;;;;;21.90;1.00;;;;;;2253477;61;1404;-88
2021/04/21 12:55:02;275125.00;0.92;475.16;75058.00;0.25;130.50;;;;;22.20;1.00;;;;;;2255544;61;990;-90
2021/04/21 12:57:47;171107.00;0.57;296.17;83543.00;0.28;145.16;;;;;21.90;1.00;;;;;;2268197;61;1099;-88
2021/04/21 13:00:14;337408.00;1.12;582.22;89535.00;0.30;155.50;;;;;21.80;1.00;;;;;;2268309;61;1018;-84
2021/04/21 13:02:43;428168.00;1.43;738.24;204600.00;0.68;353.84;;;;;21.70;1.00;;;;;;2259616;61;1448;-86
2021/04/21 13:05:11;129243.00;0.43;224.02;59347.00;0.20;103.35;;;;;21.70;1.00;;;;;;2259962;61;1105;-89
2021/04/21 13:07:38;167170.00;0.56;289.39;75150.00;0.25;130.66;;;;;22.00;1.00;;;;;;2259985;61;1982;-85
2021/04/21 13:10:07;322765.00;1.08;557.05;82830.00;0.28;143.93;;;;;21.60;1.00;;;;;;2255838;61;1113;-85
2021/04/21 13:12:34;267415.00;0.89;461.90;83322.00;0.28;144.78;;;;;22.00;1.00;;;;;;2251907;61;1398;-87
2021/04/21 13:15:09;255749.00;0.85;441.84;93288.00;0.31;161.98;;;;;22.40;1.00;;;;;;2252213;61;953;-88
2021/04/21 13:17:50;229728.00;0.77;397.08;82175.00;0.27;142.79;;;;;22.00;1.00;;;;;;2252163;61;1142;-87
2021/04/21 13:20:17;202708.00;0.68;350.58;80325.00;0.27;139.60;;;;;22.10;1.00;;;;;;2248129;61;977;-87
2021/04/21 13:22:44;270849.00;0.90;467.80;82812.00;0.28;143.89;;;;;22.20;1.00;;;;;;2250250;61;1350;-86
2021/04/21 13:25:15;413721.00;1.38;713.39;70371.00;0.23;122.40;;;;;22.10;1.00;;;;;;2256303;61;1056;-86
2021/04/21 13:27:41;407752.00;1.36;703.13;83068.00;0.28;144.34;;;;;22.30;1.00;;;;;;2258370;61;1934;-87
2021/04/21 13:30:11;340420.00;1.13;587.40;85022.00;0.28;147.71;;;;;22.70;1.00;;;;;;2255899;61;1059;-88
2021/04/21 13:32:40;181904.00;0.61;314.77;78626.00;0.26;136.66;;;;;22.80;1.00;;;;;;2264672;61;1411;-84
2021/04/21 13:35:08;0.00;0.00;0.62;0.00;0.00;0.62;;;;;22.40;1.00;;;;;;2264601;61;1127;-83
2021/04/21 13:37:35;0.00;0.00;0.62;0.00;0.00;0.62;;;;;22.10;1.00;;;;;;2264659;61;1455;-83
2021/04/21 13:40:05;0.00;0.00;0.62;0.00;0.00;0.62;;;;;22.00;1.00;;;;;;2264652;61;1080;-83
2021/04/21 13:42:34;118487.00;0.39;205.47;0.00;0.00;0.62;;;;;22.20;1.00;;;;;;2264651;61;1357;-83
2021/04/21 13:45:01;478499.00;1.59;824.81;66808.00;0.22;116.24;;;;;22.40;1.00;;;;;;2264366;61;1164;-86
2021/04/21 13:47:27;176551.00;0.59;305.55;72974.00;0.24;126.90;;;;;22.70;1.00;;;;;;2264428;61;2010;-85
2021/04/21 13:49:54;170772.00;0.57;295.60;75718.00;0.25;131.64;;;;;23.10;1.00;;;;;;2260585;61;1099;-84
2021/04/21 13:52:21;252297.00;0.84;435.90;76118.00;0.25;132.33;;;;;23.10;1.00;;;;;;2258860;61;1308;-87
2021/04/21 13:54:48;356027.00;1.19;614.22;88056.00;0.29;152.95;;;;;23.00;1.00;;;;;;2258915;61;1237;-85
2021/04/21 13:57:14;247666.00;0.83;427.94;80265.00;0.27;139.50;;;;;22.30;1.00;;;;;;2258710;61;1253;-85
2021/04/21 13:59:41;176595.00;0.59;305.63;79748.00;0.27;138.60;;;;;22.00;1.00;;;;;;2260191;61;1102;-86
2021/04/21 14:02:09;209906.00;0.70;362.97;75941.00;0.25;132.03;;;;;22.00;1.00;;;;;;2259089;61;1399;-85
2021/04/21 14:04:36;168511.00;0.56;291.70;82248.00;0.27;142.92;;;;;22.10;1.00;;;;;;2253944;61;1258;-84
2021/04/21 14:07:02;239485.00;0.80;413.87;81621.00;0.27;141.84;;;;;22.50;1.00;;;;;;2263210;61;1926;-85
2021/04/21 14:09:30;165416.00;0.55;286.37;70642.00;0.24;122.87;;;;;22.80;1.00;;;;;;2263588;61;1137;-85
2021/04/21 14:11:57;211274.00;0.70;365.33;68210.00;0.23;118.67;;;;;22.40;1.00;;;;;;2262687;61;1411;-84
2021/04/21 14:14:24;206188.00;0.69;356.57;81617.00;0.27;141.83;;;;;21.80;1.00;;;;;;2256285;61;1111;-85
2021/04/21 14:16:50;224347.00;0.75;387.82;76976.00;0.26;133.81;;;;;22.20;1.00;;;;;;2256587;61;1095;-85
2021/04/21 14:19:17;225872.00;0.75;390.45;76296.00;0.25;132.64;;;;;22.50;1.00;;;;;;2256245;61;1169;-85
2021/04/21 14:21:44;231155.00;0.77;399.54;84673.00;0.28;147.11;;;;;22.80;1.00;;;;;;2263176;61;1313;-85
2021/04/21 14:24:11;9488.00;0.03;17.06;0.00;0.00;0.62;;;;;22.90;1.00;;;;;;2263277;61;1156;-85
2021/04/21 14:26:39;189111.00;0.63;327.18;0.00;0.00;0.62;;;;;22.70;1.00;;;;;;2260136;61;1997;-85
2021/04/21 14:29:06;32277.00;0.11;56.52;0.00;0.00;0.62;;;;;22.60;1.00;;;;;;2256616;61;1082;-86
2021/04/21 14:31:35;103813.00;0.35;180.15;0.00;0.00;0.62;;;;;22.70;1.00;;;;;;2263759;61;1415;-85
2021/04/21 14:34:01;173658.00;0.58;300.57;82480.00;0.27;143.32;;;;;23.20;1.00;;;;;;2263561;61;1311;-85
2021/04/21 14:36:29;214991.00;0.72;371.72;77635.00;0.26;134.95;;;;;23.50;1.00;;;;;;2262008;61;1213;-86
2021/04/21 14:38:55;174521.00;0.58;302.05;80799.00;0.27;140.42;;;;;23.30;1.00;;;;;;2261069;61;1188;-85
2021/04/21 14:41:22;206290.00;0.69;356.75;80093.00;0.27;139.20;;;;;22.80;1.00;;;;;;2260822;61;1418;-86
2021/04/21 14:43:49;169041.00;0.56;292.61;74824.00;0.25;130.10;;;;;21.70;1.00;;;;;;2260634;61;1217;-85
2021/04/21 14:46:15;178182.00;0.59;308.36;82000.00;0.27;142.49;;;;;20.60;1.00;;;;;;2261579;61;1999;-85
2021/04/21 14:48:42;172409.00;0.57;298.42;78432.00;0.26;136.33;;;;;20.10;1.00;;;;;;2256371;61;1226;-87
2021/04/21 14:51:08;211642.00;0.71;365.96;79021.00;0.26;137.35;;;;;20.30;1.00;;;;;;2262553;61;1437;-86
2021/04/21 14:53:35;196149.00;0.65;339.29;75010.00;0.25;130.42;;;;;20.90;1.00;;;;;;2261992;61;1103;-87
2021/04/21 14:56:01;369513.00;1.23;637.40;117427.00;0.39;203.64;;;;;21.40;1.00;;;;;;2262272;61;1111;-86
2021/04/21 14:58:27;162991.00;0.54;282.19;68140.00;0.23;118.55;;;;;21.50;1.00;;;;;;2262572;61;1142;-86
2021/04/21 15:00:55;211197.00;0.70;365.20;74563.00;0.25;129.64;;;;;21.40;1.00;;;;;;2262783;61;1398;-86
2021/04/21 15:03:21;179950.00;0.60;311.40;83942.00;0.28;145.85;;;;;21.10;1.00;;;;;;2263675;61;1066;-86
2021/04/21 15:05:47;171772.00;0.57;297.32;82999.00;0.28;144.22;;;;;21.40;1.00;;;;;;2262728;61;1920;-86
2021/04/21 15:08:16;203984.00;0.68;352.78;69295.00;0.23;120.54;;;;;21.20;1.00;;;;;;2262720;61;1322;-86
2021/04/21 15:10:43;0.00;0.00;0.62;0.00;0.00;0.62;;;;;21.40;1.00;;;;;;2263967;61;1269;-86
2021/04/21 15:13:10;7117.00;0.02;12.95;0.00;0.00;0.62;;;;;21.60;1.00;;;;;;2263512;61;1156;-86
2021/04/21 15:15:37;8883.00;0.03;16.01;0.00;0.00;0.62;;;;;21.80;1.00;;;;;;2264096;61;1092;-86
2021/04/21 15:18:06;0.00;0.00;0.62;0.00;0.00;0.62;;;;;22.20;1.00;;;;;;2264243;61;1425;-86
2021/04/21 15:20:33;0.00;0.00;0.62;0.00;0.00;0.62;;;;;22.90;1.00;;;;;;2264305;61;1298;-85
2021/04/21 15:23:00;0.00;0.00;0.62;0.00;0.00;0.62;;;;;23.10;1.00;;;;;;2263823;61;1112;-87
2021/04/21 15:25:27;0.00;0.00;0.62;0.00;0.00;0.62;;;;;23.10;1.00;;;;;;2262963;61;1185;-86
2021/04/21 15:27:53;97287.00;0.32;168.89;0.00;0.00;0.62;;;;;22.60;1.00;;;;;;2263664;61;2003;-87
2021/04/21 15:30:21;5264.00;0.02;9.74;0.00;0.00;0.62;;;;;23.00;1.00;;;;;;2264053;61;1096;-86
2021/04/21 15:32:49;36499.00;0.12;63.83;0.00;0.00;0.62;;;;;23.00;1.00;;;;;;2263409;61;1117;-86
2021/04/21 15:35:16;0.00;0.00;0.62;0.00;0.00;0.62;;;;;22.90;1.00;;;;;;2262322;61;1168;-85
2021/04/21 15:37:44;15816.00;0.05;28.02;0.00;0.00;0.62;;;;;22.90;1.00;;;;;;2261694;61;1130;-86
2021/04/21 15:40:14;313422.00;1.04;540.99;26800.00;0.09;47.04;;;;;22.10;1.00;;;;;;2261127;61;1118;-86
2021/04/21 15:42:44;544222.00;1.81;938.00;158061.00;0.53;273.70;;;;;21.60;1.00;;;;;;2260847;61;1336;-86
2021/04/21 15:45:11;0.00;0.00;0.62;0.00;0.00;0.62;;;;;21.00;1.00;;;;;;2262549;61;1127;-85
2021/04/21 15:47:38;0.00;0.00;0.62;0.00;0.00;0.62;;;;;21.00;1.00;;;;;;2263136;61;1993;-86
2021/04/21 15:50:06;33601.00;0.11;58.82;0.00;0.00;0.62;;;;;21.10;1.00;;;;;;2263213;61;1078;-85
2021/04/21 15:52:34;12825.00;0.04;22.84;0.00;0.00;0.62;;;;;21.30;1.00;;;;;;2262915;61;1267;-86
2021/04/21 15:55:01;57562.00;0.19;100.26;0.00;0.00;0.62;;;;;21.40;1.00;;;;;;2263575;61;1614;-87
2021/04/21 15:57:29;56249.00;0.19;97.99;0.00;0.00;0.62;;;;;21.50;1.00;;;;;;2263618;61;1124;-85
2021/04/21 15:59:56;0.00;0.00;0.62;0.00;0.00;0.62;;;;;21.50;1.00;;;;;;2263551;61;1137;-87
2021/04/21 16:02:23;0.00;0.00;0.62;0.00;0.00;0.62;;;;;21.60;1.00;;;;;;2263109;61;1446;-86
2021/04/21 16:04:50;0.00;0.00;0.62;0.00;0.00;0.62;;;;;21.30;1.00;;;;;;2263522;61;1149;-85
2021/04/21 16:07:19;2076.00;0.01;4.22;0.00;0.00;0.62;;;;;21.10;1.00;;;;;;2263602;61;2010;-86
2021/04/21 16:09:46;0.00;0.00;0.62;0.00;0.00;0.62;;;;;20.90;1.00;;;;;;2263498;61;1317;-86
2021/04/21 16:12:13;32072.00;0.11;56.17;0.00;0.00;0.62;;;;;20.70;1.00;;;;;;2263868;61;1334;-86
2021/04/21 16:14:40;0.00;0.00;0.62;0.00;0.00;0.62;;;;;20.70;1.00;;;;;;2263551;61;1041;-87
2021/04/21 16:17:06;83877.00;0.28;145.73;0.00;0.00;0.62;;;;;21.10;1.00;;;;;;2264007;61;1221;-86
2021/04/21 16:19:33;0.00;0.00;0.62;0.00;0.00;0.62;;;;;21.40;1.00;;;;;;2264183;61;1122;-85
2021/04/21 16:21:59;6006.00;0.02;11.03;0.00;0.00;0.62;;;;;21.10;1.00;;;;;;2264074;61;1369;-85
2021/04/21 16:24:25;17155.00;0.06;30.34;0.00;0.00;0.62;;;;;21.30;1.00;;;;;;2263748;61;1088;-87